createdAt,value
2022-12-03T00:00:13.201Z,18.77
2022-12-03T00:02:41.688Z,19.17
2022-12-03T00:05:10.495Z,18.50
2022-12-03T00:07:38.530Z,18.70
2022-12-03T00:10:07.946Z,18.90
2022-12-03T00:12:37.255Z,20.23
2022-12-03T00:15:05.751Z,17.43
2022-12-03T00:17:33.732Z,17.97
2022-12-03T00:20:01.655Z,18.60
2022-12-03T00:22:29.516Z,16.80
2022-12-03T00:24:57.383Z,18.40
2022-12-03T00:27:25.251Z,18.63
2022-12-03T00:29:54.530Z,18.00
2022-12-03T00:32:22.407Z,15.37
2022-12-03T00:34:50.502Z,16.23
2022-12-03T00:37:18.510Z,17.60
2022-12-03T00:39:46.408Z,18.30
2022-12-03T00:42:14.335Z,18.87
2022-12-03T00:44:42.228Z,18.37
2022-12-03T00:47:11.554Z,18.63
2022-12-03T00:49:39.705Z,17.67
2022-12-03T00:52:07.576Z,18.53
2022-12-03T00:54:35.668Z,19.43
2022-12-03T00:57:03.536Z,20.43
2022-12-03T00:59:31.442Z,19.23
2022-12-03T01:01:59.444Z,19.20
2022-12-03T01:04:28.769Z,19.27
2022-12-03T01:06:56.976Z,19.60
2022-12-03T01:09:24.967Z,18.13
2022-12-03T01:11:52.959Z,19.90
2022-12-03T01:14:21.347Z,19.03
2022-12-03T01:16:49.485Z,17.50
2022-12-03T01:19:17.937Z,19.00
2022-12-03T01:21:49.251Z,17.73
2022-12-03T01:24:17.572Z,20.50
2022-12-03T01:26:45.480Z,17.07
2022-12-03T01:29:13.421Z,18.33
2022-12-03T01:31:55.217Z,19.10
2022-12-03T01:34:23.139Z,19.60
2022-12-03T01:36:52.856Z,19.67
2022-12-03T01:39:21.278Z,20.00
2022-12-03T01:41:50.307Z,19.60
2022-12-03T01:44:20.210Z,21.30
2022-12-03T01:46:48.611Z,21.03
2022-12-03T01:49:19.643Z,22.00
2022-12-03T01:51:48.723Z,19.50
2022-12-03T01:54:21.078Z,19.60
2022-12-03T01:56:49.108Z,20.00
2022-12-03T01:59:18.561Z,19.83
2022-12-03T02:01:46.791Z,19.83
2022-12-03T02:04:16.923Z,18.57
2022-12-03T02:06:45.548Z,20.20
2022-12-03T02:09:14.136Z,19.37
2022-12-03T02:11:46.517Z,20.33
2022-12-03T02:14:18.099Z,20.50
2022-12-03T02:16:46.187Z,19.00
2022-12-03T02:19:20.147Z,18.40
2022-12-03T02:21:53.228Z,19.10
2022-12-03T02:24:26.227Z,18.03
2022-12-03T02:26:55.529Z,20.60
2022-12-03T02:29:23.796Z,17.70
2022-12-03T02:31:51.863Z,17.90
2022-12-03T02:34:37.382Z,17.00
2022-12-03T02:37:05.998Z,20.07
2022-12-03T02:39:34.777Z,17.60
2022-12-03T02:42:33.221Z,18.27
2022-12-03T02:45:05.372Z,17.03
2022-12-03T02:47:34.791Z,17.80
2022-12-03T02:50:03.080Z,18.17
2022-12-03T02:52:31.155Z,17.70
2022-12-03T02:54:59.248Z,17.53
2022-12-03T02:57:28.537Z,23.87
2022-12-03T02:59:56.499Z,24.70
2022-12-03T03:02:24.599Z,20.73
2022-12-03T03:04:52.751Z,20.17
2022-12-03T03:07:20.863Z,22.70
2022-12-03T03:09:48.787Z,49.93
2022-12-03T03:12:16.739Z,21.27
2022-12-03T03:14:46.008Z,69.23
2022-12-03T03:17:13.938Z,17.03
2022-12-03T03:19:56.882Z,15.83
2022-12-03T03:22:33.392Z,14.60
2022-12-03T03:25:01.356Z,25.60
2022-12-03T03:27:29.652Z,18.40
2022-12-03T03:29:59.551Z,19.10
2022-12-03T03:32:27.992Z,21.07
2022-12-03T03:34:56.328Z,18.47
2022-12-03T03:37:24.961Z,15.60
2022-12-03T03:39:53.063Z,16.40
2022-12-03T03:42:20.964Z,15.97
2022-12-03T03:44:49.628Z,15.20
2022-12-03T03:47:19.476Z,15.77
2022-12-03T03:49:50.668Z,15.70
2022-12-03T03:52:19.389Z,14.60
2022-12-03T03:54:47.600Z,15.40
2022-12-03T03:57:15.588Z,14.30
2022-12-03T03:59:43.574Z,13.47
2022-12-03T04:02:20.854Z,13.80
2022-12-03T04:04:49.174Z,13.47
2022-12-03T04:07:17.539Z,13.80
2022-12-03T04:09:45.779Z,12.47
2022-12-03T04:12:31.998Z,14.10
2022-12-03T04:15:00.204Z,12.73
2022-12-03T04:17:29.563Z,14.40
2022-12-03T04:19:57.441Z,13.97
2022-12-03T04:22:42.741Z,13.63
2022-12-03T04:25:29.103Z,14.00
2022-12-03T04:28:14.266Z,12.87
2022-12-03T04:30:42.265Z,13.93
2022-12-03T04:33:28.777Z,13.03
2022-12-03T04:35:56.756Z,12.87
2022-12-03T04:38:24.743Z,13.30
2022-12-03T04:41:07.857Z,14.20
2022-12-03T04:43:56.156Z,14.07
2022-12-03T04:46:24.148Z,14.33
2022-12-03T04:48:53.434Z,14.40
2022-12-03T04:51:21.332Z,12.90
2022-12-03T04:53:49.217Z,13.33
2022-12-03T04:56:17.116Z,11.97
2022-12-03T04:58:45.083Z,11.30
2022-12-03T05:01:13.130Z,14.30
2022-12-03T05:03:41.068Z,12.93
2022-12-03T05:06:10.492Z,13.37
2022-12-03T05:08:38.484Z,13.50
2022-12-03T05:11:06.577Z,13.17
2022-12-03T05:13:34.510Z,13.47
2022-12-03T05:16:02.502Z,12.63
2022-12-03T05:18:30.783Z,14.00
2022-12-03T05:20:58.665Z,12.80
2022-12-03T05:23:28.158Z,13.20
2022-12-03T05:25:56.131Z,14.00
2022-12-03T05:28:24.337Z,13.07
2022-12-03T05:30:52.610Z,12.63
2022-12-03T05:33:20.596Z,12.97
2022-12-03T05:35:49.005Z,11.83
2022-12-03T05:38:16.910Z,12.30
2022-12-03T05:40:46.325Z,11.30
2022-12-03T05:43:13.228Z,11.10
2022-12-03T05:45:42.358Z,12.30
2022-12-03T05:48:11.701Z,12.77
2022-12-03T05:50:41.284Z,12.20
2022-12-03T05:53:09.218Z,12.20
2022-12-03T05:55:37.150Z,10.40
2022-12-03T05:58:06.660Z,11.13
2022-12-03T06:00:42.387Z,11.30
2022-12-03T06:03:11.463Z,10.40
2022-12-03T06:05:39.615Z,10.00
2022-12-03T06:08:07.791Z,11.20
2022-12-03T06:10:35.776Z,11.63
2022-12-03T06:13:04.278Z,11.00
2022-12-03T06:15:36.373Z,9.93
2022-12-03T06:18:08.361Z,10.57
2022-12-03T06:20:36.224Z,10.57
2022-12-03T06:23:04.150Z,11.70
2022-12-03T06:25:32.049Z,10.33
2022-12-03T06:27:59.963Z,10.30
2022-12-03T06:30:27.882Z,10.20
2022-12-03T06:32:57.158Z,12.70
2022-12-03T06:35:25.015Z,13.77
2022-12-03T06:37:52.928Z,10.77
2022-12-03T06:40:20.798Z,9.87
2022-12-03T06:42:48.671Z,12.53
2022-12-03T06:45:16.727Z,11.10
2022-12-03T06:47:44.644Z,10.63
2022-12-03T06:50:14.380Z,11.20
2022-12-03T06:52:42.257Z,11.37
2022-12-03T06:55:10.949Z,10.17
2022-12-03T06:57:38.853Z,10.63
2022-12-03T07:00:08.863Z,9.63
2022-12-03T07:02:36.897Z,9.60
2022-12-03T07:05:05.536Z,8.17
2022-12-03T07:07:34.838Z,10.00
2022-12-03T07:10:02.786Z,9.13
2022-12-03T07:12:30.700Z,8.57
2022-12-03T07:14:58.623Z,9.87
2022-12-03T07:17:26.605Z,9.10
2022-12-03T07:19:54.619Z,9.20
2022-12-03T07:22:22.521Z,7.77
2022-12-03T07:24:51.985Z,8.30
2022-12-03T07:27:20.250Z,9.30
2022-12-03T07:29:48.188Z,8.67
2022-12-03T07:32:16.086Z,9.90
2022-12-03T07:34:43.979Z,9.20
2022-12-03T07:37:11.931Z,9.43
2022-12-03T07:39:40.334Z,9.90
2022-12-03T07:42:10.350Z,12.10
2022-12-03T07:44:38.272Z,9.90
2022-12-03T07:47:06.297Z,10.50
2022-12-03T07:49:34.279Z,11.00
2022-12-03T07:52:02.148Z,9.93
2022-12-03T07:54:30.063Z,8.73
2022-12-03T07:57:01.412Z,9.33
2022-12-03T07:59:31.357Z,10.23
2022-12-03T08:01:59.356Z,9.97
2022-12-03T08:04:27.319Z,10.53
2022-12-03T08:06:55.444Z,9.30
2022-12-03T08:09:23.567Z,9.40
2022-12-03T08:11:51.532Z,9.70
2022-12-03T08:14:20.750Z,7.60
2022-12-03T08:16:50.180Z,7.77
2022-12-03T08:19:19.198Z,7.83
2022-12-03T08:21:47.189Z,7.30
2022-12-03T08:24:16.570Z,8.03
2022-12-03T08:26:45.384Z,8.20
2022-12-03T08:29:14.639Z,11.10
2022-12-03T08:31:43.401Z,15.57
2022-12-03T08:34:19.707Z,12.60
2022-12-03T08:36:48.406Z,10.20
2022-12-03T08:39:28.245Z,12.30
2022-12-03T08:42:16.653Z,13.40
2022-12-03T08:44:44.558Z,12.50
2022-12-03T08:47:15.867Z,10.90
2022-12-03T08:49:47.199Z,12.00
2022-12-03T08:52:17.575Z,11.80
2022-12-03T08:54:54.194Z,11.80
2022-12-03T08:57:26.048Z,12.90
2022-12-03T08:59:55.745Z,17.80
2022-12-03T09:02:28.397Z,23.17
2022-12-03T09:04:57.636Z,21.67
2022-12-03T09:07:25.535Z,20.70
2022-12-03T09:09:53.589Z,12.47
2022-12-03T09:12:21.644Z,12.70
2022-12-03T09:14:51.998Z,15.93
2022-12-03T09:17:20.184Z,15.23
2022-12-03T09:19:48.113Z,13.63
2022-12-03T09:22:17.462Z,10.53
2022-12-03T09:24:45.841Z,7.67
2022-12-03T09:27:13.744Z,11.23
2022-12-03T09:29:41.685Z,10.60
2022-12-03T09:32:13.650Z,9.00
2022-12-03T09:34:44.620Z,9.50
2022-12-03T09:37:12.526Z,8.80
2022-12-03T09:39:41.759Z,12.60
2022-12-03T09:42:09.875Z,14.90
2022-12-03T09:44:38.719Z,11.20
2022-12-03T09:47:07.232Z,16.10
2022-12-03T09:49:37.217Z,10.37
2022-12-03T09:52:06.422Z,6.97
2022-12-03T09:54:34.429Z,7.70
2022-12-03T09:57:05.289Z,6.60
2022-12-03T09:59:35.058Z,7.77
2022-12-03T10:02:03.485Z,7.43
2022-12-03T10:04:31.688Z,8.90
2022-12-03T10:07:00.285Z,7.90
2022-12-03T10:09:30.009Z,7.20
2022-12-03T10:11:58.603Z,7.37
2022-12-03T10:14:28.895Z,7.37
2022-12-03T10:16:57.004Z,6.47
2022-12-03T10:19:27.594Z,6.60
2022-12-03T10:21:56.084Z,6.60
2022-12-03T10:24:26.876Z,5.83
2022-12-03T10:26:56.363Z,6.93
2022-12-03T10:29:32.965Z,7.50
2022-12-03T10:32:04.536Z,7.77
2022-12-03T10:34:33.945Z,8.23
2022-12-03T10:37:13.128Z,7.40
2022-12-03T10:40:01.325Z,10.47
2022-12-03T10:42:30.485Z,9.00
2022-12-03T10:45:15.852Z,8.30
2022-12-03T10:47:52.426Z,7.43
2022-12-03T10:50:21.258Z,6.90
2022-12-03T10:52:49.153Z,8.30
2022-12-03T10:55:17.430Z,7.80
2022-12-03T10:57:46.415Z,7.50
2022-12-03T11:00:18.352Z,27.30
2022-12-03T11:02:56.171Z,9.33
2022-12-03T11:05:27.878Z,7.60
2022-12-03T11:07:56.381Z,8.23
2022-12-03T11:10:24.679Z,7.50
2022-12-03T11:13:28.573Z,7.57
2022-12-03T11:15:56.902Z,6.83
2022-12-03T11:19:01.278Z,6.63
2022-12-03T11:21:29.759Z,7.10
2022-12-03T11:24:19.723Z,7.57
2022-12-03T11:27:30.528Z,8.30
2022-12-03T11:30:02.448Z,7.90
2022-12-03T11:33:09.612Z,8.53
2022-12-03T11:36:12.941Z,8.10
2022-12-03T11:38:56.709Z,8.13
2022-12-03T11:41:28.292Z,7.17
2022-12-03T11:44:14.868Z,8.00
2022-12-03T11:46:45.231Z,7.63
2022-12-03T11:49:37.759Z,7.10
2022-12-03T11:52:21.579Z,7.90
2022-12-03T11:54:51.927Z,7.00
2022-12-03T11:57:32.265Z,6.27
2022-12-03T12:00:14.274Z,7.73
2022-12-03T12:02:42.304Z,7.27
2022-12-03T12:05:22.527Z,7.53
2022-12-03T12:07:53.756Z,8.30
2022-12-03T12:10:45.967Z,12.20
2022-12-03T12:13:50.472Z,8.70
2022-12-03T12:16:36.823Z,9.30
2022-12-03T12:19:29.260Z,9.83
2022-12-03T12:21:57.727Z,10.70
2022-12-03T12:24:47.149Z,30.30
2022-12-03T12:27:16.243Z,50.37
2022-12-03T12:29:47.247Z,30.23
2022-12-03T12:32:16.880Z,17.60
2022-12-03T12:34:46.476Z,29.53
2022-12-03T12:37:21.029Z,39.20
2022-12-03T12:39:50.380Z,13.50
2022-12-03T12:42:33.963Z,8.43
2022-12-03T12:45:07.336Z,8.27
2022-12-03T12:47:36.034Z,8.37
2022-12-03T12:50:09.923Z,7.97
2022-12-03T12:52:39.610Z,8.93
2022-12-03T12:55:11.199Z,10.77
2022-12-03T12:57:39.468Z,10.47
2022-12-03T13:00:08.889Z,47.73
2022-12-03T13:02:43.626Z,17.40
2022-12-03T13:05:13.868Z,68.93
2022-12-03T13:07:43.051Z,51.23
2022-12-03T13:10:39.727Z,53.90
2022-12-03T13:13:23.280Z,17.90
2022-12-03T13:16:03.767Z,19.50
2022-12-03T13:18:35.122Z,11.00
2022-12-03T13:21:13.701Z,12.10
2022-12-03T13:23:42.024Z,17.27
2022-12-03T13:26:32.865Z,10.30
2022-12-03T13:29:10.113Z,11.50
2022-12-03T13:31:43.525Z,10.73
2022-12-03T13:34:15.846Z,10.27
2022-12-03T13:36:47.481Z,9.20
2022-12-03T13:39:21.125Z,11.23
2022-12-03T13:42:08.039Z,9.57
2022-12-03T13:44:39.159Z,10.20
2022-12-03T13:47:14.737Z,13.00
2022-12-03T13:49:43.002Z,28.87
2022-12-03T13:52:12.860Z,13.00
2022-12-03T13:54:41.141Z,28.53
2022-12-03T13:57:10.504Z,29.70
2022-12-03T13:59:38.388Z,12.40
2022-12-03T14:02:06.362Z,9.73
2022-12-03T14:04:34.951Z,11.00
2022-12-03T14:07:03.071Z,9.93
2022-12-03T14:09:31.027Z,11.17
2022-12-03T14:12:16.181Z,23.13
2022-12-03T14:14:45.864Z,21.30
2022-12-03T14:17:13.817Z,13.17
2022-12-03T14:19:41.789Z,11.37
2022-12-03T14:22:10.090Z,11.70
2022-12-03T14:24:39.825Z,12.07
2022-12-03T14:27:07.749Z,10.37
2022-12-03T14:29:35.710Z,11.30
2022-12-03T14:32:05.001Z,11.30
2022-12-03T14:34:32.972Z,10.07
2022-12-03T14:37:00.884Z,10.43
2022-12-03T14:39:28.827Z,10.53
2022-12-03T14:42:15.071Z,10.23
2022-12-03T14:44:43.852Z,11.40
2022-12-03T14:47:13.690Z,12.37
2022-12-03T14:49:41.926Z,12.03
2022-12-03T14:52:12.445Z,10.40
2022-12-03T14:54:42.338Z,11.80
2022-12-03T14:57:11.395Z,10.63
2022-12-03T14:59:39.409Z,10.23
2022-12-03T15:02:07.851Z,11.17
2022-12-03T15:04:37.265Z,12.80
2022-12-03T15:07:05.517Z,18.17
2022-12-03T15:09:33.575Z,15.70
2022-12-03T15:12:01.497Z,18.50
2022-12-03T15:14:29.387Z,16.07
2022-12-03T15:16:57.424Z,14.30
2022-12-03T15:19:26.608Z,14.13
2022-12-03T15:21:55.855Z,11.87
2022-12-03T15:24:23.764Z,11.57
2022-12-03T15:26:53.365Z,12.07
2022-12-03T15:29:21.829Z,11.10
2022-12-03T15:31:49.907Z,10.80
2022-12-03T15:34:22.592Z,12.20
2022-12-03T15:36:51.228Z,14.27
2022-12-03T15:39:20.497Z,14.43
2022-12-03T15:41:49.673Z,15.50
2022-12-03T15:44:17.548Z,18.30
2022-12-03T15:46:45.498Z,25.20
2022-12-03T15:49:13.463Z,20.63
2022-12-03T15:51:41.335Z,17.60
2022-12-03T15:54:09.216Z,23.93
2022-12-03T15:56:38.468Z,17.43
2022-12-03T15:59:06.349Z,14.30
2022-12-03T16:01:34.318Z,16.13
2022-12-03T16:04:02.244Z,32.40
2022-12-03T16:06:30.223Z,30.37
2022-12-03T16:08:58.109Z,26.40
2022-12-03T16:11:26.022Z,20.83
2022-12-03T16:13:55.405Z,16.73
2022-12-03T16:16:23.361Z,16.03
2022-12-03T16:18:51.348Z,15.50
2022-12-03T16:21:25.009Z,18.07
2022-12-03T16:23:54.514Z,19.70
2022-12-03T16:26:22.395Z,18.87
2022-12-03T16:28:50.307Z,15.40
2022-12-03T16:31:20.147Z,16.43
2022-12-03T16:33:48.426Z,16.27
2022-12-03T16:36:16.423Z,15.50
2022-12-03T16:38:44.363Z,14.93
2022-12-03T16:41:12.314Z,16.30
2022-12-03T16:43:40.195Z,20.33
2022-12-03T16:46:21.405Z,20.63
2022-12-03T16:48:51.237Z,18.90
2022-12-03T16:51:20.302Z,19.43
2022-12-03T16:53:48.597Z,19.83
2022-12-03T16:56:16.618Z,19.40
2022-12-03T16:58:44.818Z,17.40
2022-12-03T17:01:12.967Z,17.73
2022-12-03T17:03:42.206Z,17.90
2022-12-03T17:06:11.576Z,18.47
2022-12-03T17:08:42.014Z,19.03
2022-12-03T17:11:12.428Z,21.90
2022-12-03T17:13:40.429Z,19.37
2022-12-03T17:16:08.415Z,20.70
2022-12-03T17:18:36.352Z,31.97
2022-12-03T17:21:04.396Z,26.50
2022-12-03T17:23:33.671Z,25.67
2022-12-03T17:26:01.544Z,30.63
2022-12-03T17:28:29.448Z,23.63
2022-12-03T17:30:57.386Z,16.90
2022-12-03T17:33:25.309Z,18.23
2022-12-03T17:35:53.280Z,19.20
2022-12-03T17:38:21.180Z,20.80
2022-12-03T17:40:50.439Z,25.23
2022-12-03T17:43:18.379Z,25.57
2022-12-03T17:45:46.338Z,30.63
2022-12-03T17:48:14.240Z,28.03
2022-12-03T17:50:42.183Z,21.80
2022-12-03T17:53:10.536Z,24.63
2022-12-03T17:55:44.627Z,20.13
2022-12-03T17:58:14.687Z,18.87
2022-12-03T18:00:42.660Z,19.73
2022-12-03T18:03:10.661Z,19.33
2022-12-03T18:05:38.702Z,19.07
2022-12-03T18:08:07.478Z,17.57
2022-12-03T18:10:35.929Z,19.60
2022-12-03T18:13:03.847Z,19.40
2022-12-03T18:15:33.464Z,19.00
2022-12-03T18:18:01.366Z,21.17
2022-12-03T18:20:29.361Z,22.30
2022-12-03T18:22:58.914Z,19.90
2022-12-03T18:25:28.048Z,19.33
2022-12-03T18:27:55.952Z,21.30
2022-12-03T18:30:23.893Z,21.13
2022-12-03T18:32:53.177Z,21.47
2022-12-03T18:35:21.099Z,20.63
2022-12-03T18:37:50.807Z,20.97
2022-12-03T18:40:20.124Z,20.80
2022-12-03T18:42:48.158Z,20.63
2022-12-03T18:45:16.558Z,20.13
2022-12-03T18:47:44.653Z,21.10
2022-12-03T18:50:14.757Z,22.40
2022-12-03T18:52:42.723Z,19.20
2022-12-03T18:55:15.079Z,22.83
2022-12-03T18:57:42.960Z,22.87
2022-12-03T19:00:13.888Z,26.67
2022-12-03T19:05:31.736Z,24.97
2022-12-03T19:07:59.780Z,22.10
2022-12-03T19:10:28.067Z,25.50
2022-12-03T19:12:55.931Z,23.07
2022-12-03T19:15:24.186Z,26.33
2022-12-03T19:17:52.338Z,25.47
2022-12-03T19:20:20.456Z,25.17
2022-12-03T19:22:49.713Z,23.07
2022-12-03T19:25:17.678Z,23.17
2022-12-03T19:27:45.545Z,25.83
2022-12-03T19:30:14.253Z,22.30
2022-12-03T19:32:42.214Z,26.80
2022-12-03T19:35:11.401Z,31.33
2022-12-03T19:37:39.472Z,28.30
2022-12-03T19:40:11.355Z,32.83
2022-12-03T19:42:39.818Z,30.00
2022-12-03T19:45:08.603Z,28.60
2022-12-03T19:47:36.652Z,27.57
2022-12-03T19:50:05.234Z,30.87
2022-12-03T19:52:36.309Z,24.17
2022-12-03T19:55:05.151Z,24.27
2022-12-03T19:57:34.415Z,20.23
2022-12-03T20:00:02.336Z,20.23
2022-12-03T20:02:30.390Z,23.33
2022-12-03T20:04:58.332Z,22.20
2022-12-03T20:07:26.300Z,25.20
2022-12-03T20:09:54.502Z,24.07
2022-12-03T20:12:22.614Z,24.90
2022-12-03T20:14:51.892Z,25.43
2022-12-03T20:17:19.778Z,25.53
2022-12-03T20:19:47.915Z,22.17
2022-12-03T20:22:15.820Z,21.30
2022-12-03T20:24:43.756Z,21.37
2022-12-03T20:27:11.628Z,60.40
2022-12-03T20:29:39.564Z,21.47
2022-12-03T20:32:08.978Z,29.47
2022-12-03T20:34:36.997Z,27.57
2022-12-03T20:37:05.052Z,24.67
2022-12-03T20:39:33.046Z,24.13
2022-12-03T20:42:01.008Z,24.70
2022-12-03T20:44:28.929Z,26.00
2022-12-03T20:46:56.904Z,28.33
2022-12-03T20:49:26.142Z,24.70
2022-12-03T20:51:54.030Z,21.30
2022-12-03T20:54:22.059Z,23.83
2022-12-03T20:56:50.148Z,22.40
2022-12-03T20:59:18.503Z,22.23
2022-12-03T21:01:46.723Z,23.37
2022-12-03T21:04:16.108Z,21.30
2022-12-03T21:06:46.196Z,22.10
2022-12-03T21:09:14.473Z,21.00
2022-12-03T21:11:44.563Z,21.57
2022-12-03T21:14:12.808Z,20.80
2022-12-03T21:19:30.200Z,18.67
2022-12-03T21:21:59.480Z,20.00
2022-12-03T21:24:27.394Z,19.60
2022-12-03T21:26:55.330Z,19.00
2022-12-03T21:29:23.497Z,17.60
2022-12-03T21:31:51.454Z,16.80
2022-12-03T21:34:19.343Z,16.67
2022-12-03T21:36:47.229Z,17.77
2022-12-03T21:39:16.499Z,17.73
2022-12-03T21:42:34.749Z,19.60
2022-12-03T21:44:32.564Z,20.53
2022-12-03T21:47:12.137Z,19.60
2022-12-03T21:49:42.012Z,18.07
2022-12-03T21:52:10.369Z,19.63
2022-12-03T21:54:39.628Z,17.80
2022-12-03T21:57:07.549Z,19.27
2022-12-03T21:59:35.496Z,19.60
2022-12-03T22:02:03.709Z,18.17
2022-12-03T22:04:31.719Z,16.67
2022-12-03T22:06:59.616Z,13.60
2022-12-03T22:09:27.646Z,15.80
2022-12-03T22:11:59.291Z,16.40
2022-12-03T22:14:27.368Z,19.00
2022-12-03T22:16:55.302Z,16.50
2022-12-03T22:19:23.677Z,18.20
2022-12-03T22:21:51.590Z,20.07
2022-12-03T22:24:19.737Z,22.20
2022-12-03T22:26:48.136Z,20.40
2022-12-03T22:29:17.487Z,18.47
2022-12-03T22:31:45.519Z,17.23
2022-12-03T22:34:13.492Z,19.53
2022-12-03T22:36:41.488Z,17.77
2022-12-03T22:39:09.413Z,17.83
2022-12-03T22:41:37.335Z,16.67
2022-12-03T22:44:05.324Z,16.90
2022-12-03T22:46:34.735Z,20.10
2022-12-03T22:49:07.057Z,16.97
2022-12-03T22:51:36.260Z,17.43
2022-12-03T22:54:04.356Z,15.33
2022-12-03T22:56:32.837Z,18.03
2022-12-03T22:59:00.810Z,16.70
2022-12-03T23:01:30.688Z,15.30
2022-12-03T23:04:00.596Z,15.47
2022-12-03T23:06:29.308Z,17.10
2022-12-03T23:08:58.134Z,15.17
2022-12-03T23:11:26.179Z,13.90
2022-12-03T23:13:54.413Z,14.00
2022-12-03T23:16:24.592Z,14.77
2022-12-03T23:18:52.543Z,14.57
2022-12-03T23:21:28.967Z,16.73
2022-12-03T23:23:57.779Z,16.10
2022-12-03T23:26:25.831Z,16.17
2022-12-03T23:28:53.729Z,17.10
2022-12-03T23:31:23.507Z,16.63
2022-12-03T23:33:52.153Z,16.10
2022-12-03T23:36:22.195Z,14.60
2022-12-03T23:38:50.413Z,16.00
2022-12-03T23:41:20.417Z,16.10
2022-12-03T23:43:48.785Z,16.20
2022-12-03T23:46:18.577Z,15.67
2022-12-03T23:48:46.959Z,14.23
2022-12-03T23:51:17.409Z,14.43
2022-12-03T23:53:46.741Z,15.40
2022-12-03T23:56:16.320Z,13.90
2022-12-03T23:58:44.251Z,14.27
